Powered by GoogleTranslate

Occupational Safety and Health Administration OSHA

Accident Search Results

Description, Abstract, KeywordSICNAICSDate RangeOfficeInsp Nr
Keyword: "Electrician"AllAllAllAllAll

By Date

Results 141 - 160 of 1647
Result Page: ... 3 4 5 6 7 8 9 10 11 12 ...
  # Summary Nr Event Date Report ID Fat SIC Event Description
141 70067.015 01/19/2015 0627510 X Employee Is Killed After Falling Due To Hydrogen Sulfide Exp
142 73705.015 01/08/2015 0213600   Worker Testing Electrical Wires Touches Live Wire And Sustai
143 69052.015 10/04/2014 0950647 X Employee Falls From Tire Rack, And Later Dies
144 66409.015 07/22/2014 0728500 X Employee Falls From Bridge And Dies
145 60769.015 04/13/2014 0626300 X One Employee Killed, One Injured In Electrical Fire
146 201623907 04/07/2014 1054116   1731 Worker Sustains Concussion In Fall Through Ceiling
147 202558094 03/19/2014 0950631   1731 Two Workers Are Burned In Electric Arc Flash
148 200536464 03/05/2014 0751910 X 1731 Electrical Foreman Is Electrocuted
149 202720348 03/01/2014 0950633   1731 Electrician Apprentice Incurs Partial Amputation Of Finger
150 202557609 02/06/2014 0950631   1731 Electrician Supervisor Incurs Fractures In Fall From Ladder
151 202532537 12/12/2013 0950664   2911 Falling Power Panel Crushes Electrician'S Toes
152 200376648 12/11/2013 0454510   1731 Worker Is Burned In Arc Flash From Electric Panelboard
153 202479499 11/14/2013 0950644   1731 Electrical Worker Is Injured In 12 Ft Fall From A Ladder
154 202615183 11/05/2013 1054112 X 1522,1731 One Employee Is Electrocuted And Another Is Not Injured
155 202082426 09/30/2013 0453730   1731 Electrician Injured In An Arc Flash
156 202556627 09/30/2013 0950631 X 1623 Worker Is Electrocuted While Working In Electrical Vault
157 202556635 09/24/2013 0950631 X 1731 Employee Suffers Electrocution When Contact 480 Volt Current
158 202715603 09/13/2013 0950633 X 1731 Worker Contacts Energized Conductor And Is Electrocuted
159 202715538 09/06/2013 0950633 X 1731 Electrical Worker Is Killed While Pulling Wire
160 202658464 09/05/2013 0950643   1731 Electrical Worker Is Shocked While Installing Switch Gear

Thank You for Visiting Our Website

You are exiting the Department of Labor's Web server.

The Department of Labor does not endorse, takes no responsibility for, and exercises no control over the linked organization or its views, or contents, nor does it vouch for the accuracy or accessibility of the information contained on the destination server. The Department of Labor also cannot authorize the use of copyrighted materials contained in linked Web sites. Users must request such authorization from the sponsor of the linked Web site. Thank you for visiting our site. Please click the button below to continue.

Close